Terminal Aerodrome Forecast
Issued by NWS Charleston, WV

Home | Current Version | Previous Version | Text Only | Print | Product List | Glossary On
Versions: 1 2 3 4 5 6 7 8 9 10 11 12 13 14 15 16 17 18 19 20 21 22
000
FTUS41 KRLX 280524
TAFHTS
TAF
KHTS 280524Z 2806/2906 20005KT 6SM BR OVC015
      TEMPO 2807/2809 4SM -SHRA BR OVC007
     FM281100 22004KT 1SM BR OVC003
     FM281300 VRB03KT 4SM +SHRA BR OVC010
     FM281500 VRB03KT 2SM +SHRA BR VCTS OVC012CB
     FM282000 31005KT 3SM +SHRA BR VCTS OVC025CB
     FM282300 35006KT 6SM +SHRA BR OVC025=

USA.gov is the U.S. government's official web portal to all federal, state and local government web resources and services.